createdAt,value
2017-08-31T00:00:48.492Z,19.24
2017-08-31T00:01:48.462Z,19.28
2017-08-31T00:02:48.445Z,19.31
2017-08-31T00:03:48.119Z,19.25
2017-08-31T00:04:48.474Z,19.2
2017-08-31T00:05:48.418Z,19.24
2017-08-31T00:06:48.928Z,19.15
2017-08-31T00:07:48.081Z,19.1
2017-08-31T00:08:48.710Z,19.08
2017-08-31T00:09:48.380Z,19.11
2017-08-31T00:10:48.687Z,19.21
2017-08-31T00:11:48.682Z,19.13
2017-08-31T00:12:48.354Z,19.15
2017-08-31T00:13:48.663Z,19.1
2017-08-31T00:14:48.330Z,19.1
2017-08-31T00:15:48.011Z,19.08
2017-08-31T00:16:47.987Z,19.15
2017-08-31T00:17:48.311Z,19.11
2017-08-31T00:18:47.967Z,19.14
2017-08-31T00:19:48.279Z,19.11
2017-08-31T00:20:48.592Z,19.01
2017-08-31T00:21:48.261Z,19.11
2017-08-31T00:22:48.586Z,19.11
2017-08-31T00:23:48.245Z,19.08
2017-08-31T00:24:48.554Z,19.06
2017-08-31T00:25:48.542Z,19.02
2017-08-31T00:26:48.546Z,19.08
2017-08-31T00:27:48.529Z,19.02
2017-08-31T00:28:48.195Z,19.1
2017-08-31T00:29:48.180Z,19.02
2017-08-31T00:30:48.176Z,19.11
2017-08-31T00:31:48.483Z,19.05
2017-08-31T00:32:48.470Z,19.08
2017-08-31T00:33:47.824Z,18.98
2017-08-31T00:34:48.452Z,19.08
2017-08-31T00:35:48.172Z,19.06
2017-08-31T00:36:48.115Z,19.01
2017-08-31T00:37:48.135Z,19.06
2017-08-31T00:38:48.096Z,19.01
2017-08-31T00:39:48.401Z,19.15
2017-08-31T00:40:48.393Z,19.11
2017-08-31T00:41:48.067Z,19.14
2017-08-31T00:42:48.060Z,19.14
2017-08-31T00:43:47.723Z,19.11
2017-08-31T00:44:48.044Z,19.18
2017-08-31T00:45:47.702Z,19.1
2017-08-31T00:46:48.016Z,19.14
2017-08-31T00:47:48.004Z,19.13
2017-08-31T00:48:47.994Z,19.14
2017-08-31T00:49:47.983Z,19.18
2017-08-31T00:50:47.975Z,19.17
2017-08-31T00:51:47.963Z,19.18
2017-08-31T00:52:47.635Z,19.23
2017-08-31T00:53:48.265Z,19.15
2017-08-31T00:54:47.617Z,19.28
2017-08-31T00:55:47.605Z,19.28
2017-08-31T00:56:47.920Z,19.25
2017-08-31T00:57:47.905Z,19.33
2017-08-31T00:58:47.574Z,19.33
2017-08-31T00:59:48.209Z,19.32
2017-08-31T01:00:48.251Z,19.18
2017-08-31T01:01:47.548Z,19.23
2017-08-31T01:02:47.864Z,19.32
2017-08-31T01:03:47.848Z,19.25
2017-08-31T01:04:47.515Z,19.21
2017-08-31T01:05:47.507Z,19.21
2017-08-31T01:06:47.839Z,19.18
2017-08-31T01:07:47.824Z,19.25
2017-08-31T01:08:48.142Z,19.25
2017-08-31T01:09:47.805Z,19.24
2017-08-31T01:10:48.169Z,19.23
2017-08-31T01:11:47.450Z,19.23
2017-08-31T01:12:48.079Z,19.32
2017-08-31T01:13:47.749Z,19.28
2017-08-31T01:14:47.447Z,19.24
2017-08-31T01:15:48.048Z,19.23
2017-08-31T01:16:47.719Z,19.21
2017-08-31T01:17:47.708Z,19.23
2017-08-31T01:18:47.700Z,19.18
2017-08-31T01:19:47.693Z,19.23
2017-08-31T01:20:47.730Z,19.17
2017-08-31T01:21:48.013Z,19.17
2017-08-31T01:22:47.660Z,19.14
2017-08-31T01:23:47.659Z,19.2
2017-08-31T01:24:47.318Z,19.24
2017-08-31T01:25:47.946Z,19.24
2017-08-31T01:26:47.943Z,19.23
2017-08-31T01:27:47.318Z,19.17
2017-08-31T01:28:47.921Z,19.17
2017-08-31T01:29:47.271Z,19.18
2017-08-31T01:30:47.579Z,19.24
2017-08-31T01:31:47.575Z,19.18
2017-08-31T01:32:47.882Z,19.25
2017-08-31T01:33:47.559Z,19.21
2017-08-31T01:34:47.543Z,19.23
2017-08-31T01:35:47.862Z,19.14
2017-08-31T01:36:47.533Z,19.21
2017-08-31T01:37:47.835Z,19.23
2017-08-31T01:38:47.508Z,19.23
2017-08-31T01:39:47.497Z,19.14
2017-08-31T01:40:47.485Z,19.13
2017-08-31T01:41:47.154Z,19.18
2017-08-31T01:42:47.463Z,19.21
2017-08-31T01:43:47.785Z,19.17
2017-08-31T01:44:47.444Z,19.14
2017-08-31T01:45:47.487Z,19.14
2017-08-31T01:46:47.424Z,19.08
2017-08-31T01:47:47.096Z,19.06
2017-08-31T01:48:47.727Z,19.11
2017-08-31T01:49:47.723Z,19.05
2017-08-31T01:50:47.389Z,19.08
2017-08-31T01:51:47.698Z,19.06
2017-08-31T01:52:47.899Z,19.08
2017-08-31T01:53:47.360Z,19.05
2017-08-31T01:54:47.350Z,19.01
2017-08-31T01:55:47.016Z,19.01
2017-08-31T01:56:47.648Z,18.97
2017-08-31T01:57:47.640Z,19.06
2017-08-31T01:58:47.014Z,18.99
2017-08-31T01:59:46.984Z,18.94
2017-08-31T02:00:46.973Z,18.94
2017-08-31T02:01:47.602Z,18.95
2017-08-31T02:02:47.264Z,18.86
2017-08-31T02:03:47.261Z,18.8
2017-08-31T02:04:47.571Z,18.84
2017-08-31T02:05:47.245Z,18.8
2017-08-31T02:06:47.229Z,18.79
2017-08-31T02:07:47.541Z,18.79
2017-08-31T02:08:46.889Z,18.73
2017-08-31T02:09:47.521Z,18.62
2017-08-31T02:10:46.869Z,18.67
2017-08-31T02:11:47.183Z,18.62
2017-08-31T02:12:47.169Z,18.67
2017-08-31T02:13:47.482Z,18.68
2017-08-31T02:14:47.477Z,18.72
2017-08-31T02:15:47.469Z,18.68
2017-08-31T02:16:47.453Z,18.67
2017-08-31T02:17:47.122Z,18.67
2017-08-31T02:18:46.789Z,18.59
2017-08-31T02:19:47.425Z,18.68
2017-08-31T02:20:47.408Z,18.64
2017-08-31T02:21:47.082Z,18.64
2017-08-31T02:22:47.073Z,18.54
2017-08-31T02:23:47.061Z,18.61
2017-08-31T02:24:47.053Z,18.64
2017-08-31T02:25:46.718Z,18.58
2017-08-31T02:26:47.352Z,18.57
2017-08-31T02:27:47.021Z,18.7
2017-08-31T02:28:47.035Z,18.55
2017-08-31T02:29:46.681Z,18.68
2017-08-31T02:30:46.998Z,18.65
2017-08-31T02:31:46.663Z,18.57
2017-08-31T02:32:47.289Z,18.58
2017-08-31T02:33:47.285Z,18.52
2017-08-31T02:34:47.291Z,18.54
2017-08-31T02:35:47.269Z,18.59
2017-08-31T02:36:47.265Z,18.57
2017-08-31T02:37:47.241Z,18.47
2017-08-31T02:38:47.234Z,18.49
2017-08-31T02:39:47.228Z,18.5
2017-08-31T02:40:47.217Z,18.43
2017-08-31T02:41:46.566Z,18.33
2017-08-31T02:42:47.190Z,18.4
2017-08-31T02:43:47.187Z,18.37
2017-08-31T02:44:47.391Z,18.39
2017-08-31T02:45:46.844Z,18.29
2017-08-31T02:46:46.843Z,18.28
2017-08-31T02:47:46.830Z,18.25
2017-08-31T02:48:46.817Z,18.22
2017-08-31T02:49:46.801Z,18.19
2017-08-31T02:50:46.793Z,18.17
2017-08-31T02:51:46.783Z,18.21
2017-08-31T02:52:47.108Z,18.17
2017-08-31T02:53:47.080Z,18.18
2017-08-31T02:54:46.427Z,18.19
2017-08-31T02:55:46.737Z,18.09
2017-08-31T02:56:46.730Z,18.13
2017-08-31T02:57:46.749Z,18.15
2017-08-31T02:58:46.714Z,18.18
2017-08-31T02:59:46.707Z,18.04
2017-08-31T03:00:46.692Z,18.15
2017-08-31T03:01:46.358Z,17.99
2017-08-31T03:02:46.988Z,17.97
2017-08-31T03:03:46.979Z,17.87
2017-08-31T03:04:46.662Z,17.91
2017-08-31T03:05:46.645Z,17.84
2017-08-31T03:06:46.631Z,17.89
2017-08-31T03:07:46.944Z,17.87
2017-08-31T03:08:46.610Z,17.82
2017-08-31T03:09:46.598Z,17.84
2017-08-31T03:10:46.910Z,17.82
2017-08-31T03:11:46.575Z,17.76
2017-08-31T03:12:46.884Z,17.78
2017-08-31T03:13:46.235Z,17.82
2017-08-31T03:14:46.227Z,17.79
2017-08-31T03:15:46.862Z,17.71
2017-08-31T03:16:46.570Z,17.67
2017-08-31T03:17:46.523Z,17.55
2017-08-31T03:18:46.499Z,17.55
2017-08-31T03:19:46.490Z,17.5
2017-08-31T03:20:46.486Z,17.53
2017-08-31T03:21:46.470Z,17.51
2017-08-31T03:22:46.140Z,17.46
2017-08-31T03:23:46.773Z,17.54
2017-08-31T03:24:46.440Z,17.36
2017-08-31T03:25:46.758Z,17.36
2017-08-31T03:26:46.417Z,17.38
2017-08-31T03:27:46.408Z,17.33
2017-08-31T03:28:46.717Z,17.28
2017-08-31T03:29:46.066Z,17.23
2017-08-31T03:30:46.077Z,17.23
2017-08-31T03:31:46.417Z,17.22
2017-08-31T03:32:46.361Z,17.13
2017-08-31T03:33:46.663Z,17.15
2017-08-31T03:34:46.657Z,17.1
2017-08-31T03:35:46.646Z,17.13
2017-08-31T03:36:45.994Z,17.13
2017-08-31T03:37:46.301Z,17.17
2017-08-31T03:38:46.613Z,17.14
2017-08-31T03:39:45.958Z,17.14
2017-08-31T03:40:45.948Z,17.11
2017-08-31T03:41:46.259Z,17.13
2017-08-31T03:42:46.564Z,17.06
2017-08-31T03:43:46.235Z,17.07
2017-08-31T03:44:46.546Z,17.06
2017-08-31T03:45:46.543Z,17.07
2017-08-31T03:46:46.203Z,17.06
2017-08-31T03:47:46.197Z,17.07
2017-08-31T03:48:46.507Z,17.03
2017-08-31T03:49:45.850Z,17.03
2017-08-31T03:50:45.843Z,16.96
2017-08-31T03:51:46.151Z,16.93
2017-08-31T03:52:46.188Z,17.03
2017-08-31T03:53:46.447Z,16.92
2017-08-31T03:54:46.115Z,16.96
2017-08-31T03:55:46.106Z,17.03
2017-08-31T03:56:46.413Z,17.03
2017-08-31T03:57:46.405Z,17.06
2017-08-31T03:58:46.076Z,16.95
2017-08-31T03:59:46.062Z,16.95
2017-08-31T04:00:46.372Z,16.96
2017-08-31T04:01:46.076Z,16.81
2017-08-31T04:02:45.713Z,16.88
2017-08-31T04:03:46.389Z,16.8
2017-08-31T04:04:46.005Z,16.88
2017-08-31T04:05:45.679Z,16.89
2017-08-31T04:06:45.671Z,16.85
2017-08-31T04:22:20.781Z,16.71
2017-08-31T04:23:03.199Z,16.71
2017-08-31T04:24:03.213Z,16.7
2017-08-31T04:25:03.499Z,16.7
2017-08-31T04:26:03.160Z,16.7
2017-08-31T04:27:02.837Z,16.68
2017-08-31T04:28:03.134Z,16.68
2017-08-31T04:29:03.447Z,16.7
2017-08-31T04:30:03.116Z,16.65
2017-08-31T04:31:03.108Z,16.63
2017-08-31T04:32:03.415Z,16.65
2017-08-31T04:33:03.089Z,16.62
2017-08-31T04:34:02.757Z,16.59
2017-08-31T04:35:03.057Z,16.6
2017-08-31T04:36:02.738Z,16.62
2017-08-31T04:37:03.038Z,16.5
2017-08-31T04:38:03.348Z,16.53
2017-08-31T04:39:02.694Z,16.58
2017-08-31T04:40:03.325Z,16.55
2017-08-31T04:41:02.991Z,16.6
2017-08-31T04:42:02.978Z,16.59
2017-08-31T04:43:03.341Z,16.5
2017-08-31T04:44:03.286Z,16.45
2017-08-31T04:45:03.274Z,16.52
2017-08-31T04:46:03.260Z,16.52
2017-08-31T04:47:02.923Z,16.38
2017-08-31T04:48:02.645Z,16.44
2017-08-31T04:49:02.906Z,16.48
2017-08-31T04:50:02.588Z,16.42
2017-08-31T04:51:02.562Z,16.37
2017-08-31T04:52:03.184Z,16.34
2017-08-31T04:53:02.910Z,16.42
2017-08-31T04:54:02.526Z,16.45
2017-08-31T04:55:02.832Z,16.45
2017-08-31T04:56:03.140Z,16.41
2017-08-31T04:57:02.816Z,16.38
2017-08-31T04:58:02.479Z,16.48
2017-08-31T04:59:02.476Z,16.44
2017-08-31T05:00:02.461Z,16.45
2017-08-31T05:01:03.090Z,16.44
2017-08-31T05:02:02.758Z,16.33
2017-08-31T05:03:02.791Z,16.44
2017-08-31T05:04:02.432Z,16.37
2017-08-31T05:05:02.734Z,16.41
2017-08-31T05:06:02.724Z,16.38
2017-08-31T05:07:03.032Z,16.33
2017-08-31T05:08:02.686Z,16.4
2017-08-31T05:09:02.673Z,16.41
2017-08-31T05:10:02.661Z,16.38
2017-08-31T05:11:02.653Z,16.45
2017-08-31T05:12:02.321Z,16.44
2017-08-31T05:13:03.002Z,16.49
2017-08-31T05:14:02.301Z,16.5
2017-08-31T05:15:02.282Z,16.48
2017-08-31T05:16:02.915Z,16.44
2017-08-31T05:17:02.903Z,16.42
2017-08-31T05:18:02.252Z,16.4
2017-08-31T05:19:02.571Z,16.33
2017-08-31T05:20:02.231Z,16.25
2017-08-31T05:21:02.214Z,16.31
2017-08-31T05:22:02.530Z,16.31
2017-08-31T05:23:02.241Z,16.23
2017-08-31T05:24:02.504Z,16.2
2017-08-31T05:25:02.497Z,16.16
2017-08-31T05:26:02.482Z,16.12
2017-08-31T05:27:02.791Z,16.15
2017-08-31T05:28:02.136Z,16.15
2017-08-31T05:29:02.126Z,16.12
2017-08-31T05:30:02.756Z,16.12
2017-08-31T05:31:02.099Z,16.11
2017-08-31T05:32:02.090Z,16.11
2017-08-31T05:33:02.397Z,16.06
2017-08-31T05:34:02.708Z,16.01
2017-08-31T05:35:02.699Z,15.99
2017-08-31T05:36:02.685Z,16.01
2017-08-31T05:37:02.353Z,16.01
2017-08-31T05:38:02.347Z,15.99
2017-08-31T05:39:02.009Z,15.96
2017-08-31T05:40:02.316Z,15.89
2017-08-31T05:41:02.301Z,15.92
2017-08-31T05:42:02.303Z,15.94
2017-08-31T05:43:02.606Z,15.92
2017-08-31T05:44:01.956Z,15.96
2017-08-31T05:45:02.256Z,15.89
2017-08-31T05:46:02.248Z,15.92
2017-08-31T05:47:02.233Z,15.86
2017-08-31T05:48:02.225Z,15.88
2017-08-31T05:49:02.209Z,15.89
2017-08-31T05:50:02.197Z,15.88
2017-08-31T05:51:02.194Z,15.94
2017-08-31T05:52:02.501Z,15.94
2017-08-31T05:53:02.687Z,15.94
2017-08-31T05:54:01.828Z,15.89
2017-08-31T05:55:02.497Z,15.93
2017-08-31T05:56:02.131Z,15.89
2017-08-31T05:57:02.116Z,15.89
2017-08-31T05:58:01.784Z,15.88
2017-08-31T05:59:02.095Z,15.94
2017-08-31T06:00:02.402Z,15.89
2017-08-31T06:01:02.071Z,15.88
2017-08-31T06:02:01.735Z,15.92
2017-08-31T06:03:02.052Z,15.92
2017-08-31T06:04:02.039Z,15.88
2017-08-31T06:05:01.703Z,15.92
2017-08-31T06:06:02.011Z,15.85
2017-08-31T06:07:02.200Z,15.92
2017-08-31T06:08:01.993Z,15.93
2017-08-31T06:09:01.703Z,15.85
2017-08-31T06:10:01.964Z,15.97
2017-08-31T06:11:01.950Z,15.92
2017-08-31T06:12:01.943Z,15.81
2017-08-31T06:13:01.933Z,15.78
2017-08-31T06:14:01.965Z,15.97
2017-08-31T06:15:01.898Z,15.85
2017-08-31T06:16:02.227Z,15.76
2017-08-31T06:17:01.558Z,15.78
2017-08-31T06:18:01.887Z,15.82
2017-08-31T06:19:01.854Z,15.81
2017-08-31T06:20:01.523Z,15.78
2017-08-31T06:21:02.150Z,15.76
2017-08-31T06:22:02.134Z,15.7
2017-08-31T06:23:01.814Z,15.76
2017-08-31T06:24:01.803Z,15.74
2017-08-31T06:25:02.110Z,15.74
2017-08-31T06:26:01.775Z,15.7
2017-08-31T06:27:02.085Z,15.78
2017-08-31T06:28:02.073Z,15.63
2017-08-31T06:29:01.786Z,15.63
2017-08-31T06:30:01.723Z,15.63
2017-08-31T06:31:01.393Z,15.61
2017-08-31T06:32:01.390Z,15.61
2017-08-31T06:33:01.698Z,15.63
2017-08-31T06:34:01.993Z,15.67
2017-08-31T06:35:01.665Z,15.6
2017-08-31T06:36:01.979Z,15.66
2017-08-31T06:37:01.325Z,15.64
2017-08-31T06:38:01.628Z,15.61
2017-08-31T06:39:01.619Z,15.63
2017-08-31T06:40:01.922Z,15.56
2017-08-31T06:41:01.600Z,15.51
2017-08-31T06:42:01.576Z,15.61
2017-08-31T06:43:01.244Z,15.63
2017-08-31T06:44:01.230Z,15.56
2017-08-31T06:45:01.220Z,15.49
2017-08-31T06:46:01.853Z,15.56
2017-08-31T06:47:01.844Z,15.59
2017-08-31T06:48:01.584Z,15.54
2017-08-31T06:49:01.499Z,15.59
2017-08-31T06:50:01.165Z,15.56
2017-08-31T06:51:01.468Z,15.57
2017-08-31T06:52:01.456Z,15.56
2017-08-31T06:53:01.328Z,15.64
2017-08-31T06:54:01.432Z,15.61
2017-08-31T06:55:01.417Z,15.61
2017-08-31T06:56:01.410Z,15.56
2017-08-31T06:57:01.396Z,15.57
2017-08-31T06:58:01.434Z,15.52
2017-08-31T06:59:01.050Z,15.52
2017-08-31T07:00:01.362Z,15.54
2017-08-31T07:01:01.678Z,15.54
2017-08-31T07:02:01.335Z,15.54
2017-08-31T07:03:01.005Z,15.61
2017-08-31T07:04:01.634Z,15.56
2017-08-31T07:05:01.302Z,15.54
2017-08-31T07:06:01.606Z,15.52
2017-08-31T07:07:01.281Z,15.56
2017-08-31T07:08:00.946Z,15.56
2017-08-31T07:09:01.250Z,15.51
2017-08-31T07:10:01.239Z,15.56
2017-08-31T07:11:01.228Z,15.49
2017-08-31T07:12:01.219Z,15.54
2017-08-31T07:13:01.528Z,15.52
2017-08-31T07:14:01.192Z,15.51
2017-08-31T07:15:01.186Z,15.52
2017-08-31T07:16:01.540Z,15.52
2017-08-31T07:17:01.156Z,15.52
2017-08-31T07:18:01.466Z,15.51
2017-08-31T07:19:01.455Z,15.52
2017-08-31T07:20:01.119Z,15.52
2017-08-31T07:21:01.107Z,15.52
2017-08-31T07:22:01.417Z,15.64
2017-08-31T07:23:01.082Z,15.61
2017-08-31T07:24:01.405Z,15.64
2017-08-31T07:25:00.744Z,15.6
2017-08-31T07:26:01.048Z,15.6
2017-08-31T07:27:01.373Z,15.61
2017-08-31T07:28:01.033Z,15.68
2017-08-31T07:29:01.009Z,15.67
2017-08-31T07:30:01.001Z,15.57
2017-08-31T07:31:00.988Z,15.6
2017-08-31T07:32:01.296Z,15.61
2017-08-31T07:33:00.644Z,15.59
2017-08-31T07:34:00.951Z,15.64
2017-08-31T07:35:00.939Z,15.75
2017-08-31T07:36:01.251Z,15.72
2017-08-31T07:37:00.918Z,15.63
2017-08-31T07:38:00.901Z,15.67
2017-08-31T07:39:00.893Z,15.78
2017-08-31T07:40:01.199Z,15.7
2017-08-31T07:41:00.549Z,15.78
2017-08-31T07:42:00.537Z,15.76
2017-08-31T07:43:00.844Z,15.81
2017-08-31T07:44:01.150Z,15.79
2017-08-31T07:45:01.145Z,15.78
2017-08-31T07:46:01.126Z,15.85
2017-08-31T07:47:00.478Z,15.93
2017-08-31T07:48:00.786Z,16.04
2017-08-31T07:49:00.775Z,16.04
2017-08-31T07:50:00.440Z,15.99
2017-08-31T07:51:01.075Z,15.99
2017-08-31T07:52:00.421Z,16.06
2017-08-31T07:53:00.724Z,16.06
2017-08-31T07:54:00.716Z,16.16
2017-08-31T07:55:00.381Z,16.11
2017-08-31T07:56:00.690Z,16.14
2017-08-31T07:57:00.682Z,16.11
2017-08-31T07:58:00.667Z,16.16
2017-08-31T07:59:00.655Z,16.18
2017-08-31T08:00:00.641Z,16.15
2017-08-31T08:01:00.630Z,16.22
2017-08-31T08:02:00.622Z,16.26
2017-08-31T08:03:00.607Z,16.18
2017-08-31T08:04:00.274Z,16.22
2017-08-31T08:05:00.911Z,16.23
2017-08-31T08:06:00.904Z,16.25
2017-08-31T08:07:00.562Z,16.27
2017-08-31T08:08:00.548Z,16.2
2017-08-31T08:09:00.219Z,16.16
2017-08-31T08:10:00.558Z,16.25
2017-08-31T08:11:00.843Z,16.2
2017-08-31T08:12:00.210Z,16.16
2017-08-31T08:13:00.225Z,16.27
2017-08-31T08:14:00.485Z,16.27
2017-08-31T08:15:00.468Z,16.27
2017-08-31T08:16:00.141Z,16.26
2017-08-31T08:17:00.696Z,16.22
2017-08-31T08:18:00.114Z,16.26
2017-08-31T08:19:00.425Z,16.22
2017-08-31T08:20:00.739Z,16.23
2017-08-31T08:21:00.724Z,16.22
2017-08-31T08:22:00.707Z,16.23
2017-08-31T08:23:00.713Z,16.18
2017-08-31T08:24:00.369Z,16.18
2017-08-31T08:25:00.366Z,16.18
2017-08-31T08:26:00.032Z,16.18
2017-08-31T08:27:00.338Z,16.22
2017-08-31T08:28:00.008Z,16.18
2017-08-31T08:28:59.995Z,16.2
2017-08-31T08:30:00.297Z,16.15
2017-08-31T08:31:00.286Z,16.22
2017-08-31T08:32:00.277Z,16.25
2017-08-31T08:33:00.269Z,16.3
2017-08-31T08:34:00.255Z,16.25
2017-08-31T08:34:59.975Z,16.25
2017-08-31T08:35:59.906Z,16.3
2017-08-31T08:37:00.543Z,16.26
2017-08-31T08:38:00.255Z,16.3
2017-08-31T08:39:00.520Z,16.33
2017-08-31T08:40:00.185Z,16.38
2017-08-31T08:41:00.497Z,16.33
2017-08-31T08:41:59.844Z,16.33
2017-08-31T08:43:00.149Z,16.38
2017-08-31T08:43:59.821Z,16.33
2017-08-31T08:45:00.128Z,16.34
2017-08-31T08:46:00.123Z,16.44
2017-08-31T08:46:59.793Z,16.35
2017-08-31T08:48:00.098Z,16.45
2017-08-31T08:49:00.086Z,16.53
2017-08-31T08:50:00.077Z,16.56
2017-08-31T08:51:00.396Z,16.59
2017-08-31T08:52:00.048Z,16.6
2017-08-31T08:53:00.037Z,16.63
2017-08-31T08:54:00.345Z,16.71
2017-08-31T08:55:00.020Z,16.8
2017-08-31T08:56:00.329Z,16.81
2017-08-31T08:56:59.999Z,16.86
2017-08-31T08:58:00.301Z,16.65
2017-08-31T08:59:00.299Z,16.83
2017-08-31T08:59:59.639Z,16.8
2017-08-31T09:01:00.269Z,16.78
2017-08-31T09:01:59.617Z,16.89
2017-08-31T09:03:00.262Z,16.86
2017-08-31T09:03:59.921Z,16.86
2017-08-31T09:04:59.608Z,16.85
2017-08-31T09:05:59.895Z,16.85
2017-08-31T09:06:59.887Z,16.9
2017-08-31T09:07:59.876Z,16.96
2017-08-31T09:09:00.189Z,17.07
2017-08-31T09:09:59.541Z,17.03
2017-08-31T09:10:59.850Z,17
2017-08-31T09:11:59.830Z,17.06
2017-08-31T09:12:59.497Z,16.98
2017-08-31T09:13:59.844Z,17
2017-08-31T09:15:00.369Z,16.9
2017-08-31T09:16:00.114Z,16.92
2017-08-31T09:17:00.099Z,16.81
2017-08-31T09:17:59.778Z,16.9
2017-08-31T09:18:59.435Z,16.86
2017-08-31T09:19:59.745Z,16.86
2017-08-31T09:20:59.414Z,16.96
2017-08-31T09:21:59.724Z,16.93
2017-08-31T09:22:59.716Z,16.93
2017-08-31T09:23:59.431Z,16.95
2017-08-31T09:24:59.372Z,16.92
2017-08-31T09:25:59.362Z,16.83
2017-08-31T09:26:59.682Z,16.88
2017-08-31T09:27:59.339Z,16.89
2017-08-31T09:28:59.330Z,16.89
2017-08-31T09:29:59.645Z,16.88
2017-08-31T09:31:00.020Z,16.92
2017-08-31T09:31:59.617Z,16.8
2017-08-31T09:32:59.607Z,16.83
2017-08-31T09:33:59.281Z,16.65
2017-08-31T09:34:59.585Z,16.68
2017-08-31T09:35:59.604Z,16.74
2017-08-31T09:36:59.575Z,16.7
2017-08-31T09:37:59.550Z,16.68
2017-08-31T09:38:59.596Z,16.71
2017-08-31T09:39:59.231Z,16.73
2017-08-31T09:40:59.519Z,16.67
2017-08-31T09:41:59.510Z,16.75
2017-08-31T09:42:59.820Z,16.65
2017-08-31T09:43:59.806Z,16.63
2017-08-31T09:44:59.481Z,16.59
2017-08-31T09:45:59.532Z,16.56
2017-08-31T09:46:59.456Z,16.55
2017-08-31T09:47:59.132Z,16.48
2017-08-31T09:48:59.442Z,16.41
2017-08-31T09:49:59.426Z,16.44
2017-08-31T09:50:59.413Z,16.5
2017-08-31T09:51:59.736Z,16.42
2017-08-31T09:52:59.705Z,16.5
2017-08-31T09:53:59.377Z,16.49
2017-08-31T09:54:59.366Z,16.48
2017-08-31T09:55:59.697Z,16.45
2017-08-31T09:56:59.355Z,16.55
2017-08-31T09:57:59.339Z,16.65
2017-08-31T09:58:59.016Z,16.73
2017-08-31T09:59:59.634Z,16.8
2017-08-31T10:00:59.306Z,16.78
2017-08-31T10:01:59.612Z,16.92
2017-08-31T10:02:59.276Z,17.03
2017-08-31T10:03:59.599Z,17.1
2017-08-31T10:04:58.942Z,17.11
2017-08-31T10:05:59.248Z,17.1
2017-08-31T10:06:59.285Z,17.17
2017-08-31T10:07:59.748Z,17.29
2017-08-31T10:08:58.897Z,17.3
2017-08-31T10:09:58.893Z,17.4
2017-08-31T10:10:59.521Z,17.38
2017-08-31T10:11:59.184Z,17.41
2017-08-31T10:12:58.872Z,17.35
2017-08-31T10:13:59.171Z,17.28
2017-08-31T10:14:58.842Z,17.25
2017-08-31T10:15:58.898Z,17.18
2017-08-31T10:16:59.237Z,17.1
2017-08-31T10:17:58.805Z,17.08
2017-08-31T10:18:59.118Z,17.1
2017-08-31T10:19:59.149Z,17.08
2017-08-31T10:20:59.101Z,17.1
2017-08-31T10:21:58.770Z,16.95
2017-08-31T10:22:58.762Z,16.88
2017-08-31T10:23:58.764Z,16.75
2017-08-31T10:24:59.394Z,16.75
2017-08-31T10:25:58.730Z,16.78
2017-08-31T10:26:58.739Z,16.86
2017-08-31T10:27:59.350Z,16.83
2017-08-31T10:28:58.697Z,16.86
2017-08-31T10:29:59.012Z,16.89
2017-08-31T10:30:59.001Z,16.93
2017-08-31T10:31:59.317Z,16.96
2017-08-31T10:32:58.656Z,17.04
2017-08-31T10:33:58.967Z,17.11
2017-08-31T10:34:58.637Z,17.08
2017-08-31T10:35:58.946Z,17.14
2017-08-31T10:36:59.256Z,17.18
2017-08-31T10:37:58.940Z,17.23
2017-08-31T10:38:58.987Z,17.26
2017-08-31T10:39:58.906Z,17.35
2017-08-31T10:40:58.899Z,17.38
2017-08-31T10:41:59.250Z,17.29
2017-08-31T10:42:59.220Z,17.29
2017-08-31T10:43:58.873Z,17.26
2017-08-31T10:44:58.544Z,17.2
2017-08-31T10:45:58.848Z,17.25
2017-08-31T10:46:58.844Z,17.36
2017-08-31T10:47:59.150Z,17.36
2017-08-31T10:48:58.816Z,17.46
2017-08-31T10:49:58.806Z,17.51
2017-08-31T10:50:58.477Z,17.63
2017-08-31T10:51:58.793Z,17.54
2017-08-31T10:52:58.783Z,17.69
2017-08-31T10:53:58.459Z,17.51
2017-08-31T10:54:58.761Z,17.63
2017-08-31T10:55:58.749Z,17.59
2017-08-31T10:56:58.748Z,17.69
2017-08-31T10:57:58.413Z,17.82
2017-08-31T10:58:58.720Z,17.91
2017-08-31T10:59:58.710Z,17.89
2017-08-31T11:00:58.755Z,17.88
2017-08-31T11:01:59.014Z,18.1
2017-08-31T11:02:58.360Z,18.19
2017-08-31T11:03:58.675Z,18.22
2017-08-31T11:04:58.675Z,18.46
2017-08-31T11:05:58.979Z,18.52
2017-08-31T11:06:58.646Z,18.49
2017-08-31T11:07:58.650Z,18.46
2017-08-31T11:08:58.634Z,18.43
2017-08-31T11:09:58.995Z,18.39
2017-08-31T11:10:58.612Z,18.27
2017-08-31T11:11:58.921Z,18.18
2017-08-31T11:12:58.278Z,18.15
2017-08-31T11:13:58.946Z,18.15
2017-08-31T11:14:58.260Z,17.91
2017-08-31T11:15:58.892Z,17.92
2017-08-31T11:16:58.573Z,17.79
2017-08-31T11:17:58.878Z,17.74
2017-08-31T11:18:58.865Z,17.73
2017-08-31T11:19:58.562Z,17.82
2017-08-31T11:20:58.860Z,17.84
2017-08-31T11:21:58.203Z,17.89
2017-08-31T11:22:58.288Z,17.84
2017-08-31T11:23:58.506Z,17.88
2017-08-31T11:24:58.548Z,17.89
2017-08-31T11:25:58.488Z,17.95
2017-08-31T11:26:58.473Z,18.09
2017-08-31T11:27:58.703Z,18.18
2017-08-31T11:28:58.681Z,18.21
2017-08-31T11:29:59.105Z,18.34
2017-08-31T11:30:59.008Z,18.46
2017-08-31T11:31:58.874Z,18.54
2017-08-31T11:32:59.000Z,18.64
2017-08-31T11:33:58.630Z,18.8
2017-08-31T11:34:58.635Z,18.9
2017-08-31T11:35:58.576Z,18.94
2017-08-31T11:36:59.064Z,18.84
2017-08-31T11:37:58.064Z,18.79
2017-08-31T11:38:58.692Z,18.74
2017-08-31T11:39:58.366Z,18.34
2017-08-31T11:40:58.679Z,18.15
2017-08-31T11:41:58.031Z,18.12
2017-08-31T11:42:58.338Z,18.13
2017-08-31T11:43:58.043Z,18.04
2017-08-31T11:44:58.323Z,17.87
2017-08-31T11:45:58.663Z,17.69
2017-08-31T11:46:57.989Z,17.63
2017-08-31T11:47:57.982Z,17.57
2017-08-31T11:48:58.610Z,17.46
2017-08-31T11:49:58.284Z,17.5
2017-08-31T11:50:58.269Z,17.51
2017-08-31T11:51:58.261Z,17.46
2017-08-31T11:52:58.577Z,17.54
2017-08-31T11:53:57.928Z,17.67
2017-08-31T11:54:58.561Z,17.76
2017-08-31T11:55:58.230Z,17.81
2017-08-31T11:56:58.565Z,17.97
2017-08-31T11:57:58.210Z,18.13
2017-08-31T11:58:58.533Z,18.1
2017-08-31T11:59:57.869Z,18.34
2017-08-31T12:00:58.189Z,18.42
2017-08-31T12:01:58.504Z,18.54
2017-08-31T12:02:58.492Z,18.65
2017-08-31T12:03:58.484Z,18.79
2017-08-31T12:04:58.467Z,18.73
2017-08-31T12:05:58.143Z,18.73
2017-08-31T12:06:58.452Z,18.61
2017-08-31T12:07:58.004Z,18.67
2017-08-31T12:08:58.435Z,18.65
2017-08-31T12:09:58.104Z,18.67
2017-08-31T12:10:58.103Z,18.58
2017-08-31T12:11:58.419Z,18.7
2017-08-31T12:12:58.404Z,18.76
2017-08-31T12:13:57.754Z,18.99
2017-08-31T12:14:57.748Z,19.51
2017-08-31T12:15:58.056Z,19.83
2017-08-31T12:16:58.376Z,20.28
2017-08-31T12:17:58.041Z,20.65
2017-08-31T12:18:58.358Z,20.68
2017-08-31T12:19:58.031Z,20.74
2017-08-31T12:20:58.024Z,20.69
2017-08-31T12:21:58.345Z,20.8
2017-08-31T12:22:58.008Z,20.76
2017-08-31T12:23:58.009Z,20.58
2017-08-31T12:24:58.318Z,20.34
2017-08-31T12:25:58.315Z,20.27
2017-08-31T12:26:57.986Z,20.23
2017-08-31T12:27:57.689Z,20.13
2017-08-31T12:28:57.978Z,19.95
2017-08-31T12:29:58.294Z,19.93
2017-08-31T12:30:58.285Z,19.88
2017-08-31T12:31:57.959Z,19.95
2017-08-31T12:32:57.952Z,20.23
2017-08-31T12:33:58.263Z,20.21
2017-08-31T12:34:58.275Z,20.24
2017-08-31T12:35:57.612Z,20.06
2017-08-31T12:36:57.930Z,20.03
2017-08-31T12:37:58.244Z,19.87
2017-08-31T12:38:57.916Z,19.8
2017-08-31T12:39:58.230Z,19.73
2017-08-31T12:40:57.908Z,19.73
2017-08-31T12:41:57.575Z,19.84
2017-08-31T12:42:57.942Z,20.02
2017-08-31T12:43:58.211Z,20.09
2017-08-31T12:44:58.208Z,20.09
2017-08-31T12:45:57.553Z,20.64
2017-08-31T12:46:57.567Z,20.77
2017-08-31T12:47:58.185Z,20.46
2017-08-31T12:48:57.858Z,20.28
2017-08-31T12:49:57.866Z,20.09
2017-08-31T12:50:57.842Z,19.75
2017-08-31T12:51:57.523Z,19.51
2017-08-31T12:52:57.831Z,19.4
2017-08-31T12:53:57.507Z,19.21
2017-08-31T12:54:57.869Z,18.98
2017-08-31T12:55:57.493Z,18.83
2017-08-31T12:56:58.141Z,18.8
2017-08-31T12:57:58.123Z,18.74
2017-08-31T12:58:57.791Z,18.68
2017-08-31T12:59:57.794Z,18.65
2017-08-31T13:00:58.101Z,18.64
2017-08-31T13:01:57.828Z,18.68
2017-08-31T13:02:57.795Z,18.67
2017-08-31T13:03:58.150Z,18.77
2017-08-31T13:04:57.423Z,18.83
2017-08-31T13:05:58.063Z,18.86
2017-08-31T13:06:57.731Z,19.01
2017-08-31T13:07:58.079Z,19.14
2017-08-31T13:08:58.051Z,19.2
2017-08-31T13:09:57.394Z,19.13